Time;durP1;ratioP1;P1;durP2;ratioP2;P2;SDS_P1;SDS_P2;PMS_P1;PMS_P2;Temp;Humidity;BMP_temperature;BMP_pressure;BME280_temperature;BME280_humidity;BME280_pressure;Samples;Min_cycle;Max_cycle;Signal;HPM_P1;HPM_P2
2022/04/03 00:02:19;;;;;;;4.70;4.30;;;-2.20;73.00;;;;;;4950756;29;20545;-51
2022/04/03 00:04:45;;;;;;;5.27;4.70;;;-2.20;72.00;;;;;;4950432;29;20537;-51
2022/04/03 00:07:12;;;;;;;9.63;5.00;;;-2.30;70.60;;;;;;4952913;28;20558;-51
2022/04/03 00:09:38;;;;;;;5.90;4.47;;;-2.30;67.70;;;;;;4952954;29;20469;-50
2022/04/03 00:12:05;;;;;;;5.87;4.80;;;-2.30;67.70;;;;;;4949407;29;20494;-51
2022/04/03 00:14:32;;;;;;;8.60;4.80;;;-2.40;68.70;;;;;;4949756;29;20982;-51
2022/04/03 00:16:58;;;;;;;7.03;4.70;;;-2.40;67.60;;;;;;4951414;28;20577;-50
2022/04/03 00:19:27;;;;;;;6.10;5.10;;;-2.30;66.00;;;;;;4950797;29;20573;-51
2022/04/03 00:21:53;;;;;;;5.13;4.63;;;-2.50;70.00;;;;;;4952400;29;20462;-51
2022/04/03 00:24:20;;;;;;;5.03;4.50;;;-2.50;67.80;;;;;;4941301;29;20550;-51
2022/04/03 00:26:46;;;;;;;5.47;4.97;;;-2.60;58.80;;;;;;4942224;29;20585;-50
2022/04/03 00:29:13;;;;;;;10.57;5.70;;;-2.60;58.90;;;;;;4949441;29;20991;-51
2022/04/03 00:31:39;;;;;;;5.53;5.00;;;-2.60;53.70;;;;;;4950249;29;20553;-51
2022/04/03 00:34:06;;;;;;;9.97;4.63;;;-2.60;48.40;;;;;;4951254;28;20553;-51
2022/04/03 00:36:34;;;;;;;6.07;5.30;;;-2.60;49.80;;;;;;4947057;29;20525;-51
2022/04/03 00:39:00;;;;;;;9.13;5.07;;;-2.60;52.80;;;;;;4939811;29;20469;-51
2022/04/03 00:41:27;;;;;;;9.87;5.30;;;-2.60;51.50;;;;;;4953600;28;20486;-50
2022/04/03 00:43:55;;;;;;;8.37;5.83;;;-2.60;50.90;;;;;;4950530;29;20585;-52
2022/04/03 00:46:22;;;;;;;8.30;5.73;;;-2.60;47.10;;;;;;4950134;28;20541;-51
2022/04/03 00:48:49;;;;;;;7.20;5.47;;;-2.70;42.40;;;;;;4944774;29;20469;-51
2022/04/03 00:51:15;;;;;;;5.63;5.00;;;-2.70;45.80;;;;;;4952004;29;20486;-50
2022/04/03 00:53:43;;;;;;;9.17;6.27;;;-2.80;47.50;;;;;;4940779;29;20482;-50
2022/04/03 00:56:10;;;;;;;15.10;8.03;;;-2.80;49.90;;;;;;4946588;29;20578;-50
2022/04/03 00:58:38;;;;;;;17.83;11.37;;;-3.00;40.80;;;;;;4946864;29;21249;-51
2022/04/03 01:01:04;;;;;;;15.30;9.07;;;-3.00;36.60;;;;;;4946508;29;20555;-50
2022/04/03 01:03:31;;;;;;;14.63;8.10;;;-2.90;36.80;;;;;;4952033;29;20498;-51
2022/04/03 01:05:58;;;;;;;9.60;6.00;;;-2.90;33.80;;;;;;4951016;28;20569;-51
2022/04/03 01:08:25;;;;;;;9.43;5.70;;;-2.80;34.00;;;;;;4953892;29;20847;-51
2022/04/03 01:10:53;;;;;;;10.43;4.90;;;-2.80;35.20;;;;;;4947073;29;20842;-51
2022/04/03 01:13:21;;;;;;;5.60;5.20;;;-2.80;34.30;;;;;;4954801;29;20462;-51
2022/04/03 01:15:52;;;;;;;6.10;5.30;;;-2.70;38.80;;;;;;4954584;28;20545;-50
2022/04/03 01:18:18;;;;;;;6.60;5.10;;;-2.60;38.40;;;;;;4955611;29;20859;-51
2022/04/03 01:20:45;;;;;;;7.73;5.03;;;-2.50;42.40;;;;;;4955998;29;20557;-51
2022/04/03 01:23:11;;;;;;;7.80;4.97;;;-2.40;44.10;;;;;;4956507;29;20550;-51
2022/04/03 01:25:39;;;;;;;5.40;4.90;;;-2.40;44.10;;;;;;4954312;29;20926;-52
2022/04/03 01:28:06;;;;;;;8.77;4.60;;;-2.30;47.40;;;;;;4949816;29;20549;-50
2022/04/03 01:30:32;;;;;;;5.07;4.50;;;-2.20;50.40;;;;;;4955522;29;20498;-50
2022/04/03 01:32:59;;;;;;;6.23;4.80;;;-2.20;51.10;;;;;;4951084;29;20469;-50
2022/04/03 01:35:26;;;;;;;4.90;4.27;;;-2.10;53.60;;;;;;4955632;29;20565;-51
2022/04/03 01:37:52;;;;;;;5.83;5.23;;;-2.10;49.90;;;;;;4957854;28;21196;-51
2022/04/03 01:40:19;;;;;;;8.67;4.80;;;-2.00;50.00;;;;;;4950798;29;20557;-52
2022/04/03 01:42:47;;;;;;;7.10;5.00;;;-1.90;56.00;;;;;;4955193;29;20545;-51
2022/04/03 01:45:13;;;;;;;5.03;4.07;;;-1.90;51.40;;;;;;4949120;29;20583;-51
2022/04/03 01:47:40;;;;;;;9.27;4.63;;;-1.80;55.50;;;;;;4954052;29;20537;-51
2022/04/03 01:50:07;;;;;;;5.27;4.77;;;-1.70;57.30;;;;;;4950285;29;20541;-50
2022/04/03 01:52:34;;;;;;;6.40;4.47;;;-1.70;57.20;;;;;;4953852;29;21028;-51
2022/04/03 01:55:00;;;;;;;7.50;5.20;;;-1.70;57.50;;;;;;4947978;29;20489;-51
2022/04/03 01:57:27;;;;;;;6.37;4.87;;;-1.60;56.60;;;;;;4946406;29;20573;-51
2022/04/03 01:59:55;;;;;;;5.13;4.50;;;-1.60;57.30;;;;;;4954186;29;20544;-51
2022/04/03 02:02:22;;;;;;;7.87;5.20;;;-1.60;59.30;;;;;;4952217;29;20505;-51
2022/04/03 02:04:49;;;;;;;4.87;4.47;;;-1.60;57.90;;;;;;4954376;29;20554;-51
2022/04/03 02:07:15;;;;;;;7.87;4.23;;;-1.60;49.20;;;;;;4956297;29;20537;-50
2022/04/03 02:09:42;;;;;;;5.30;4.80;;;-1.50;50.60;;;;;;4952206;28;20596;-50
2022/04/03 02:12:10;;;;;;;5.70;4.50;;;-1.50;55.60;;;;;;4947129;29;20513;-51
2022/04/03 02:14:36;;;;;;;4.27;3.80;;;-1.50;57.50;;;;;;4952907;28;20550;-50
2022/04/03 02:17:04;;;;;;;4.47;3.90;;;-1.50;58.80;;;;;;4951866;28;20579;-50
2022/04/03 02:19:31;;;;;;;4.33;3.60;;;-1.40;59.30;;;;;;4951678;29;20550;-51
2022/04/03 02:21:57;;;;;;;4.63;4.20;;;-1.40;61.70;;;;;;4954863;29;20589;-51
2022/04/03 02:24:24;;;;;;;4.10;3.70;;;-1.40;58.40;;;;;;4955435;29;20541;-51
2022/04/03 02:26:51;;;;;;;5.83;5.23;;;-1.50;59.60;;;;;;4953633;29;20482;-51
2022/04/03 02:29:17;;;;;;;8.40;4.50;;;-1.40;58.30;;;;;;4955547;29;20454;-51
2022/04/03 02:31:44;;;;;;;8.20;3.80;;;-1.50;59.50;;;;;;4952699;29;20542;-51
2022/04/03 02:34:12;;;;;;;3.50;3.20;;;-1.50;58.20;;;;;;4954550;29;20489;-51
2022/04/03 02:36:40;;;;;;;6.57;4.50;;;-1.50;58.10;;;;;;4955735;28;20557;-52
2022/04/03 02:39:06;;;;;;;4.73;4.17;;;-1.40;58.50;;;;;;4948590;29;20485;-51
2022/04/03 02:41:33;;;;;;;6.10;3.97;;;-1.40;56.70;;;;;;4948322;29;20555;-51
2022/04/03 02:43:59;;;;;;;4.57;4.13;;;-1.40;57.00;;;;;;4946050;29;21047;-51
2022/04/03 02:46:26;;;;;;;4.30;3.90;;;-1.40;55.00;;;;;;4944276;29;20569;-51
2022/04/03 02:48:52;;;;;;;3.60;3.40;;;-1.40;54.30;;;;;;4953608;29;20542;-51
2022/04/03 02:51:20;;;;;;;3.50;3.20;;;-1.30;56.70;;;;;;4945366;28;20540;-51
2022/04/03 02:53:47;;;;;;;3.77;3.43;;;-1.30;54.90;;;;;;4954405;28;20545;-51
2022/04/03 02:56:13;;;;;;;4.27;3.87;;;-1.40;55.30;;;;;;4946243;29;20910;-51
2022/04/03 02:58:40;;;;;;;4.13;3.53;;;-1.40;55.20;;;;;;4951375;29;21042;-50
2022/04/03 03:01:07;;;;;;;3.63;3.37;;;-1.40;52.50;;;;;;4947197;28;21106;-51
2022/04/03 03:03:33;;;;;;;3.67;3.37;;;-1.40;54.50;;;;;;4954264;29;20554;-51
2022/04/03 03:06:00;;;;;;;3.80;3.50;;;-1.30;53.90;;;;;;4950126;29;20568;-50
2022/04/03 03:08:28;;;;;;;3.00;2.90;;;-1.30;56.60;;;;;;4953278;29;20553;-50
2022/04/03 03:10:54;;;;;;;3.57;3.27;;;-1.30;58.10;;;;;;4946150;29;20890;-50
2022/04/03 03:13:21;;;;;;;4.83;3.77;;;-1.30;59.00;;;;;;4953903;29;20553;-52
2022/04/03 03:15:47;;;;;;;9.67;3.80;;;-1.20;62.00;;;;;;4949631;29;20532;-50
2022/04/03 03:18:14;;;;;;;3.57;2.87;;;-1.20;61.20;;;;;;4953757;29;20570;-51
2022/04/03 03:20:41;;;;;;;3.43;3.10;;;-1.20;62.20;;;;;;4951318;29;20541;-51
2022/04/03 03:23:08;;;;;;;12.57;4.07;;;-1.20;62.20;;;;;;4952357;29;20466;-51
2022/04/03 03:25:36;;;;;;;3.43;3.17;;;-1.20;64.80;;;;;;4953017;29;20511;-50
2022/04/03 03:28:02;;;;;;;4.47;2.73;;;-1.20;63.40;;;;;;4944604;28;20490;-51
2022/04/03 03:30:29;;;;;;;3.40;3.10;;;-1.10;62.00;;;;;;4949878;29;20463;-52
2022/04/03 03:32:55;;;;;;;3.50;3.23;;;-1.10;63.30;;;;;;4947333;28;20562;-52
2022/04/03 03:35:22;;;;;;;3.17;2.97;;;-1.10;64.60;;;;;;4949047;29;20553;-51
2022/04/03 03:37:49;;;;;;;5.83;3.53;;;-1.10;67.20;;;;;;4950169;28;20864;-51
2022/04/03 03:40:15;;;;;;;3.83;3.13;;;-1.00;65.20;;;;;;4947736;29;21015;-51
2022/04/03 03:42:43;;;;;;;2.83;2.63;;;-1.00;66.20;;;;;;4953737;29;20493;-51
2022/04/03 03:45:11;;;;;;;2.80;2.60;;;-1.00;68.90;;;;;;4950970;29;21190;-51
2022/04/03 03:47:37;;;;;;;3.70;3.40;;;-1.00;70.00;;;;;;4953069;29;20447;-49
2022/04/03 03:50:04;;;;;;;4.20;3.70;;;-1.00;72.00;;;;;;4953250;29;20541;-50
2022/04/03 03:52:31;;;;;;;3.83;3.47;;;-1.00;70.80;;;;;;4951102;28;20899;-50
2022/04/03 03:54:58;;;;;;;3.10;2.67;;;-1.00;70.70;;;;;;4948786;29;20486;-50
2022/04/03 03:57:24;;;;;;;3.00;2.70;;;-1.00;70.50;;;;;;4945104;29;20533;-50
2022/04/03 03:59:52;;;;;;;3.40;3.10;;;-0.90;70.50;;;;;;4946793;29;20494;-50
2022/04/03 04:02:19;;;;;;;2.80;2.60;;;-0.90;69.90;;;;;;4950616;29;20558;-49
2022/04/03 04:04:46;;;;;;;4.07;3.70;;;-0.90;71.90;;;;;;4953248;29;20525;-50
2022/04/03 04:07:12;;;;;;;2.97;2.80;;;-0.90;72.70;;;;;;4952087;29;20589;-50
2022/04/03 04:09:41;;;;;;;3.50;3.00;;;-0.90;72.90;;;;;;4953047;29;20472;-50
2022/04/03 04:12:10;;;;;;;4.90;2.97;;;-0.90;73.40;;;;;;4952827;28;20473;-51
2022/04/03 04:14:38;;;;;;;3.70;3.40;;;-0.90;74.20;;;;;;4945008;29;20474;-50
2022/04/03 04:17:06;;;;;;;3.17;3.07;;;-0.90;76.80;;;;;;4957327;28;20900;-49
2022/04/03 04:19:33;;;;;;;3.83;3.50;;;-0.90;74.10;;;;;;4947918;28;20582;-50
2022/04/03 04:21:59;;;;;;;3.13;2.90;;;-0.90;79.30;;;;;;4952233;29;20498;-50
2022/04/03 04:24:26;;;;;;;3.83;3.30;;;-0.90;77.10;;;;;;4945494;29;20474;-50
2022/04/03 04:26:52;;;;;;;6.03;3.10;;;-0.90;78.20;;;;;;4947040;29;20512;-49
2022/04/03 04:29:19;;;;;;;3.87;3.57;;;-0.90;79.00;;;;;;4950299;29;20545;-50
2022/04/03 04:31:46;;;;;;;3.40;3.20;;;-0.90;80.60;;;;;;4951761;29;20549;-50
2022/04/03 04:34:13;;;;;;;3.77;3.47;;;-0.90;78.90;;;;;;4952024;29;20470;-50
2022/04/03 04:36:40;;;;;;;4.80;3.40;;;-0.90;79.00;;;;;;4952835;29;20958;-49
2022/04/03 04:39:06;;;;;;;3.60;3.33;;;-0.90;82.00;;;;;;4952786;29;20497;-50
2022/04/03 04:41:33;;;;;;;5.90;3.30;;;-0.80;82.00;;;;;;4951252;28;20548;-49
2022/04/03 04:44:00;;;;;;;3.47;3.13;;;-0.80;85.10;;;;;;4952251;29;20546;-50
2022/04/03 04:46:26;;;;;;;3.87;3.57;;;-0.90;81.40;;;;;;4953094;29;20573;-49
2022/04/03 04:48:53;;;;;;;3.53;3.20;;;-0.90;81.80;;;;;;4952828;29;20557;-49
2022/04/03 04:51:21;;;;;;;3.50;3.30;;;-0.90;82.80;;;;;;4953857;29;20454;-50
2022/04/03 04:53:47;;;;;;;4.17;3.83;;;-0.90;84.90;;;;;;4952673;29;20558;-49
2022/04/03 04:56:14;;;;;;;6.43;4.00;;;-0.90;88.20;;;;;;4946748;29;21245;-50
2022/04/03 04:58:41;;;;;;;3.50;3.30;;;-0.80;89.60;;;;;;4951966;29;21067;-50
2022/04/03 05:01:07;;;;;;;3.77;3.27;;;-0.80;93.70;;;;;;4952320;29;20462;-50
2022/04/03 05:03:34;;;;;;;3.70;3.40;;;-0.80;96.20;;;;;;4952239;28;20544;-50
2022/04/03 05:06:01;;;;;;;3.27;2.93;;;-0.80;96.20;;;;;;4952914;29;20470;-55
2022/04/03 05:08:29;;;;;;;3.80;3.00;;;-0.80;99.90;;;;;;4952558;29;20549;-49
2022/04/03 05:10:56;;;;;;;8.13;4.20;;;-0.70;99.90;;;;;;4949352;29;20517;-50
2022/04/03 05:13:25;;;;;;;2.70;2.60;;;-0.70;99.90;;;;;;4952369;29;20561;-51
2022/04/03 05:15:52;;;;;;;2.53;2.33;;;-0.70;99.90;;;;;;4955992;28;21038;-49
2022/04/03 05:18:19;;;;;;;2.50;2.40;;;-0.70;99.90;;;;;;4948905;28;21067;-50
2022/04/03 05:20:46;;;;;;;3.00;2.80;;;-0.60;99.90;;;;;;4953509;28;20478;-51
2022/04/03 05:23:12;;;;;;;11.30;2.90;;;-0.60;99.90;;;;;;4949250;29;20498;-50
2022/04/03 05:25:40;;;;;;;3.53;3.03;;;-0.60;99.90;;;;;;4946189;29;20589;-50
2022/04/03 05:28:07;;;;;;;3.10;2.90;;;-0.50;99.90;;;;;;4942734;29;20542;-51
2022/04/03 05:30:33;;;;;;;3.07;2.83;;;-0.50;99.90;;;;;;4940483;29;20470;-51
2022/04/03 05:33:00;;;;;;;2.77;2.57;;;-0.50;99.90;;;;;;4950188;29;20541;-50
2022/04/03 05:35:26;;;;;;;3.03;2.73;;;-0.50;99.90;;;;;;4952150;29;21102;-51
2022/04/03 05:37:53;;;;;;;2.70;2.57;;;-0.40;99.90;;;;;;4952807;29;20537;-50
2022/04/03 05:40:21;;;;;;;3.00;2.87;;;-0.50;99.90;;;;;;4945817;29;20462;-51
2022/04/03 05:42:49;;;;;;;4.30;2.77;;;-0.40;99.90;;;;;;4942906;29;20467;-50
2022/04/03 05:45:15;;;;;;;4.60;3.13;;;-0.50;99.90;;;;;;4941242;29;20910;-51
2022/04/03 05:47:42;;;;;;;4.00;3.70;;;-0.40;99.90;;;;;;4952911;29;20895;-50
2022/04/03 05:50:09;;;;;;;7.27;5.63;;;-0.40;99.90;;;;;;4953231;29;20956;-50
2022/04/03 05:52:40;;;;;;;9.13;6.77;;;-0.50;99.90;;;;;;4952139;28;21201;-50
2022/04/03 05:55:08;;;;;;;4.73;4.33;;;-0.50;99.90;;;;;;4947507;29;20490;-51
2022/04/03 05:57:35;;;;;;;3.80;3.37;;;-0.50;99.90;;;;;;4954726;29;20528;-50
2022/04/03 06:00:05;;;;;;;3.73;3.43;;;-0.50;99.90;;;;;;4955665;29;20572;-51
2022/04/03 06:02:40;;;;;;;6.10;3.70;;;-0.50;99.90;;;;;;4949178;29;20466;-49
2022/04/03 06:05:08;;;;;;;5.33;4.10;;;-0.50;99.90;;;;;;4956286;29;21035;-50
2022/04/03 06:07:34;;;;;;;5.43;4.37;;;-0.30;99.90;;;;;;4954547;29;21024;-50
2022/04/03 06:10:01;;;;;;;4.37;3.93;;;0.00;99.90;;;;;;4950452;29;20550;-50
2022/04/03 06:12:27;;;;;;;8.10;4.73;;;0.40;99.90;;;;;;4950769;29;20550;-50
2022/04/03 06:14:54;;;;;;;3.30;3.00;;;0.80;99.90;;;;;;4954733;29;20537;-50
2022/04/03 06:17:21;;;;;;;4.77;3.70;;;1.20;99.90;;;;;;4960258;28;20548;-50
2022/04/03 06:19:49;;;;;;;4.23;3.40;;;1.40;99.90;;;;;;4956208;29;20574;-51
2022/04/03 06:22:16;;;;;;;3.33;3.03;;;1.80;99.90;;;;;;4954542;29;20557;-50
2022/04/03 06:24:42;;;;;;;3.13;3.03;;;1.90;99.90;;;;;;4952767;29;20552;-52
2022/04/03 06:27:09;;;;;;;2.90;2.70;;;1.50;99.90;;;;;;4951064;29;20908;-49
2022/04/03 06:29:35;;;;;;;3.47;3.20;;;1.50;99.90;;;;;;4950103;29;21009;-50
2022/04/03 06:32:03;;;;;;;3.00;2.80;;;1.40;99.90;;;;;;4955713;29;20533;-51
2022/04/03 06:34:31;;;;;;;2.50;2.40;;;1.30;99.90;;;;;;4954541;29;20470;-50
2022/04/03 06:36:58;;;;;;;3.43;3.13;;;1.20;99.90;;;;;;4955145;29;20989;-51
2022/04/03 06:39:24;;;;;;;2.50;2.40;;;1.30;99.90;;;;;;4950178;28;20573;-51
2022/04/03 06:41:51;;;;;;;3.37;3.07;;;1.40;99.90;;;;;;4951956;29;20447;-50
2022/04/03 06:44:18;;;;;;;3.40;2.93;;;1.50;99.90;;;;;;4948722;29;20474;-50
2022/04/03 06:46:44;;;;;;;2.97;2.77;;;1.40;99.90;;;;;;4954336;29;20561;-51
2022/04/03 06:49:11;;;;;;;4.00;3.20;;;1.70;99.90;;;;;;4946791;29;20549;-50
2022/04/03 06:51:39;;;;;;;3.00;2.90;;;2.00;99.90;;;;;;4951718;29;21256;-50
2022/04/03 06:54:06;;;;;;;4.30;3.60;;;2.20;99.90;;;;;;4955209;29;20497;-51
2022/04/03 06:56:32;;;;;;;3.40;3.20;;;2.20;99.90;;;;;;4954640;29;20914;-50
2022/04/03 06:58:59;;;;;;;3.00;2.80;;;2.20;99.90;;;;;;4948991;29;20569;-51
2022/04/03 07:01:25;;;;;;;6.63;2.90;;;2.20;99.90;;;;;;4954567;29;20990;-50
2022/04/03 07:03:52;;;;;;;3.20;3.00;;;2.30;99.90;;;;;;4955430;28;20537;-49
2022/04/03 07:06:18;;;;;;;3.47;3.20;;;2.20;99.90;;;;;;4954444;29;20574;-49
2022/04/03 07:08:48;;;;;;;6.27;3.50;;;2.10;99.90;;;;;;4951323;29;20475;-50
2022/04/03 07:11:15;;;;;;;2.90;2.80;;;2.20;99.90;;;;;;4947068;29;20476;-50
2022/04/03 07:13:42;;;;;;;3.43;3.20;;;2.40;99.90;;;;;;4942532;28;20907;-50
2022/04/03 07:16:08;;;;;;;3.10;2.80;;;2.40;99.90;;;;;;4941934;28;20494;-51
2022/04/03 07:18:36;;;;;;;5.33;2.93;;;2.20;99.90;;;;;;4949739;28;20573;-50
2022/04/03 07:21:03;;;;;;;3.40;3.10;;;2.10;99.90;;;;;;4946686;29;20450;-50
2022/04/03 07:23:29;;;;;;;4.10;3.00;;;2.20;99.90;;;;;;4945908;28;20489;-50
2022/04/03 07:25:57;;;;;;;3.40;3.20;;;2.20;99.90;;;;;;4947019;28;20560;-49
2022/04/03 07:28:24;;;;;;;3.73;3.03;;;2.40;99.90;;;;;;4948657;28;20552;-51
2022/04/03 07:30:51;;;;;;;2.93;2.73;;;2.40;99.90;;;;;;4938447;29;20541;-51
2022/04/03 07:33:20;;;;;;;5.53;2.77;;;2.40;99.90;;;;;;4944848;29;20475;-49
2022/04/03 07:35:47;;;;;;;3.13;2.93;;;2.30;99.90;;;;;;4944089;28;20491;-51
2022/04/03 07:38:14;;;;;;;4.13;3.47;;;2.30;99.90;;;;;;4949089;29;21013;-51
2022/04/03 07:40:41;;;;;;;3.83;2.90;;;2.50;99.90;;;;;;4949822;28;20510;-50
2022/04/03 07:43:09;;;;;;;2.77;2.50;;;2.60;99.90;;;;;;4948170;29;20631;-50
2022/04/03 07:45:35;;;;;;;3.10;2.90;;;2.60;99.90;;;;;;4946388;28;20538;-50
2022/04/03 07:48:02;;;;;;;2.87;2.77;;;2.70;99.90;;;;;;4938713;29;20529;-50
2022/04/03 07:50:28;;;;;;;2.53;2.43;;;2.70;99.90;;;;;;4942871;28;20549;-50
2022/04/03 07:52:55;;;;;;;2.60;2.40;;;2.70;99.90;;;;;;4948332;29;21126;-50
2022/04/03 07:55:22;;;;;;;2.83;2.67;;;3.10;99.90;;;;;;4951796;29;20570;-51
2022/04/03 07:57:48;;;;;;;2.40;2.00;;;3.60;99.90;;;;;;4933929;29;21096;-51
2022/04/03 08:00:17;;;;;;;4.10;2.93;;;4.00;99.90;;;;;;4939614;29;20486;-51
2022/04/03 08:02:43;;;;;;;3.10;2.70;;;4.20;99.90;;;;;;4950688;29;21055;-50
2022/04/03 08:05:10;;;;;;;4.93;2.93;;;4.10;99.90;;;;;;4937166;29;21013;-50
2022/04/03 08:07:38;;;;;;;3.13;2.90;;;4.00;99.90;;;;;;4944253;29;20526;-50
2022/04/03 08:10:06;;;;;;;2.70;1.90;;;4.20;99.90;;;;;;4945778;29;20549;-50
2022/04/03 08:12:33;;;;;;;3.27;2.60;;;4.80;99.90;;;;;;4948328;28;20478;-50
2022/04/03 08:14:59;;;;;;;1.90;1.80;;;4.40;99.90;;;;;;4944430;28;20565;-51
2022/04/03 08:17:28;;;;;;;3.53;2.27;;;4.40;99.90;;;;;;4944592;29;20450;-50
2022/04/03 08:19:54;;;;;;;7.57;2.27;;;4.80;99.90;;;;;;4949494;28;20478;-50
2022/04/03 08:22:21;;;;;;;1.70;1.60;;;5.40;99.90;;;;;;4946787;28;20542;-50
2022/04/03 08:24:49;;;;;;;2.10;2.00;;;5.70;99.90;;;;;;4951924;29;20518;-50
2022/04/03 08:27:16;;;;;;;5.20;1.77;;;5.90;99.90;;;;;;4951112;29;20454;-50
2022/04/03 08:29:42;;;;;;;2.13;2.03;;;6.10;99.90;;;;;;4952041;29;20538;-50
2022/04/03 08:32:09;;;;;;;2.60;1.70;;;5.90;99.90;;;;;;4946801;28;20592;-50
2022/04/03 08:34:37;;;;;;;3.73;1.77;;;5.80;99.90;;;;;;4951396;28;20517;-50
2022/04/03 08:37:04;;;;;;;1.73;1.63;;;5.80;99.90;;;;;;4951860;29;20454;-50
2022/04/03 08:39:31;;;;;;;2.10;1.87;;;5.80;99.90;;;;;;4944556;29;20604;-51
2022/04/03 08:41:57;;;;;;;2.07;1.97;;;5.70;99.90;;;;;;4949290;29;20554;-50
2022/04/03 08:44:25;;;;;;;11.50;2.10;;;6.10;99.90;;;;;;4946091;28;20466;-51
2022/04/03 08:46:51;;;;;;;2.03;1.73;;;5.50;99.90;;;;;;4949962;28;20895;-50
2022/04/03 08:49:19;;;;;;;1.80;1.40;;;5.70;99.90;;;;;;4951823;28;20490;-50
2022/04/03 08:51:48;;;;;;;2.10;1.93;;;6.00;99.90;;;;;;4950943;29;20466;-50
2022/04/03 08:54:16;;;;;;;1.93;1.57;;;6.70;99.90;;;;;;4948117;29;20546;-51
2022/04/03 08:56:42;;;;;;;3.03;2.13;;;7.10;99.90;;;;;;4950920;29;20478;-51
2022/04/03 08:59:09;;;;;;;2.73;2.00;;;7.00;99.90;;;;;;4951288;29;20557;-52
2022/04/03 09:01:36;;;;;;;1.60;1.50;;;7.10;99.90;;;;;;4947899;29;20466;-52
2022/04/03 09:04:02;;;;;;;2.00;1.80;;;6.90;99.90;;;;;;4948224;28;20592;-50
2022/04/03 09:06:29;;;;;;;9.17;2.27;;;7.40;99.90;;;;;;4949855;29;21015;-51
2022/04/03 09:08:57;;;;;;;5.80;4.20;;;7.50;99.90;;;;;;4942034;28;20497;-50
2022/04/03 09:11:28;;;;;;;2.93;2.70;;;7.20;99.90;;;;;;4943269;29;20554;-51
2022/04/03 09:13:55;;;;;;;1.50;1.50;;;6.90;99.90;;;;;;4952520;28;20549;-52
2022/04/03 09:16:39;;;;;;;9.27;5.17;;;6.90;99.90;;;;;;4949795;29;20505;-50
2022/04/03 09:19:05;;;;;;;4.57;4.30;;;7.00;99.90;;;;;;4945906;29;20490;-50
2022/04/03 09:21:32;;;;;;;2.60;2.40;;;6.90;99.90;;;;;;4935883;29;20487;-50
2022/04/03 09:24:03;;;;;;;2.17;2.00;;;7.20;99.90;;;;;;4941768;28;20470;-51
2022/04/03 09:26:30;;;;;;;2.67;1.93;;;7.40;99.90;;;;;;4943723;28;20491;-50
2022/04/03 09:29:08;;;;;;;3.70;2.03;;;8.10;99.90;;;;;;4946740;29;20478;-50
2022/04/03 09:31:34;;;;;;;1.77;1.67;;;8.30;99.90;;;;;;4945820;29;20541;-51
2022/04/03 09:34:01;;;;;;;3.77;2.60;;;8.50;99.90;;;;;;4948697;28;20961;-50
2022/04/03 09:36:30;;;;;;;2.73;2.40;;;9.10;99.90;;;;;;4952954;29;20603;-50
2022/04/03 09:39:07;;;;;;;2.30;2.10;;;8.90;99.90;;;;;;4950995;29;20465;-50
2022/04/03 09:41:34;;;;;;;1.90;1.80;;;9.30;99.90;;;;;;4944371;29;20467;-50
2022/04/03 09:44:15;;;;;;;3.17;2.17;;;9.00;99.90;;;;;;4946881;29;20493;-50
2022/04/03 09:46:42;;;;;;;1.80;1.70;;;9.60;99.90;;;;;;4953039;23;20593;-47
2022/04/03 09:49:23;;;;;;;2.10;2.00;;;9.30;99.90;;;;;;4952071;29;20484;-48
2022/04/03 09:51:50;;;;;;;3.20;2.00;;;8.50;99.90;;;;;;4954091;29;20845;-48
2022/04/03 09:54:20;;;;;;;2.33;2.23;;;9.00;99.90;;;;;;4952733;29;21116;-47
2022/04/03 09:56:46;;;;;;;1.97;1.87;;;8.40;99.90;;;;;;4943787;28;20483;-48
2022/04/03 09:59:13;;;;;;;2.20;2.00;;;7.90;99.90;;;;;;4944861;28;20959;-48
2022/04/03 10:01:41;;;;;;;2.70;2.40;;;8.40;99.90;;;;;;4949084;28;20546;-48
2022/04/03 10:04:09;;;;;;;2.13;1.80;;;8.70;99.90;;;;;;4949373;29;20502;-48
2022/04/03 10:06:38;;;;;;;1.97;1.87;;;7.80;99.90;;;;;;4951577;28;20513;-47
2022/04/03 10:09:07;;;;;;;1.80;1.60;;;7.60;99.90;;;;;;4951112;29;21026;-47
2022/04/03 10:11:35;;;;;;;1.83;1.83;;;8.00;99.90;;;;;;4952180;29;20502;-47
2022/04/03 10:14:02;;;;;;;1.43;1.40;;;8.70;99.90;;;;;;4953199;29;20493;-47
2022/04/03 10:16:29;;;;;;;3.13;2.63;;;8.90;99.90;;;;;;4951258;28;20482;-47
2022/04/03 10:18:55;;;;;;;3.50;2.60;;;8.60;99.90;;;;;;4948551;28;20568;-47
2022/04/03 10:21:30;;;;;;;2.10;1.33;;;9.00;99.90;;;;;;4964132;28;20521;-47
2022/04/03 10:24:03;;;;;;;5.47;4.60;;;8.20;99.90;;;;;;4948133;29;20897;-47
2022/04/03 10:26:36;;;;;;;2.77;1.93;;;8.10;99.90;;;;;;4946970;29;20592;-48
2022/04/03 10:29:06;;;;;;;3.53;3.03;;;9.40;99.90;;;;;;4944785;28;21345;-48
2022/04/03 10:31:33;;;;;;;1.90;1.60;;;8.60;99.90;;;;;;4953540;28;20463;-48
2022/04/03 10:33:59;;;;;;;1.70;1.60;;;8.90;99.90;;;;;;4945302;28;20573;-48
2022/04/03 10:36:27;;;;;;;2.80;1.80;;;8.40;99.90;;;;;;4944876;28;20518;-47
2022/04/03 10:39:00;;;;;;;2.30;2.10;;;8.10;99.90;;;;;;4943078;28;20557;-47
2022/04/03 10:41:29;;;;;;;3.87;2.80;;;7.70;99.90;;;;;;4948027;29;20486;-47
2022/04/03 10:44:14;;;;;;;4.00;3.07;;;7.60;99.90;;;;;;4948820;28;20466;-47
2022/04/03 10:47:20;;;;;;;5.63;3.60;;;7.70;99.90;;;;;;4943275;28;20581;-47
2022/04/03 10:49:58;;;;;;;3.17;2.97;;;7.40;99.90;;;;;;4949023;28;23038;-46
2022/04/03 10:52:27;;;;;;;3.93;2.50;;;7.40;99.90;;;;;;4950017;29;20454;-47
2022/04/03 10:55:00;;;;;;;3.30;2.47;;;6.70;99.90;;;;;;4945891;28;21269;-47
2022/04/03 10:57:34;;;;;;;2.57;2.37;;;7.50;99.90;;;;;;4939217;28;20494;-46
2022/04/03 11:00:34;;;;;;;7.20;5.53;;;8.20;99.90;;;;;;4943003;28;20485;-47
2022/04/03 11:03:22;;;;;;;7.97;4.27;;;9.60;99.90;;;;;;4948942;29;20547;-46
2022/04/03 11:05:51;;;;;;;2.37;2.27;;;9.20;99.90;;;;;;4948159;28;20467;-48
2022/04/03 11:08:19;;;;;;;1.80;1.70;;;9.10;99.90;;;;;;4953594;28;20485;-47
2022/04/03 11:10:48;;;;;;;7.20;3.80;;;8.90;99.90;;;;;;4948686;28;20457;-47
2022/04/03 11:13:15;;;;;;;2.40;2.30;;;8.50;99.90;;;;;;4948652;28;20471;-47
2022/04/03 11:15:45;;;;;;;2.53;2.23;;;8.10;99.90;;;;;;4948468;28;20549;-47
2022/04/03 11:18:28;;;;;;;2.40;2.07;;;7.90;99.90;;;;;;4944801;28;20494;-50
2022/04/03 11:21:09;;;;;;;4.33;2.50;;;7.20;99.90;;;;;;4946605;29;20522;-51
2022/04/03 11:23:37;;;;;;;4.70;4.30;;;7.20;99.90;;;;;;4946605;29;20557;-54
2022/04/03 11:26:05;;;;;;;2.57;2.37;;;8.10;99.90;;;;;;4952286;28;20561;-52
2022/04/03 11:28:33;;;;;;;4.53;2.70;;;8.30;99.90;;;;;;4946114;28;20480;-53
2022/04/03 11:31:00;;;;;;;4.60;2.50;;;8.40;99.90;;;;;;4949008;28;21047;-48
2022/04/03 11:33:26;;;;;;;2.30;2.00;;;9.40;99.90;;;;;;4945447;28;20491;-48
2022/04/03 11:35:53;;;;;;;2.43;2.23;;;9.00;99.90;;;;;;4944626;29;20494;-49
2022/04/03 11:38:22;;;;;;;2.03;1.80;;;9.30;99.90;;;;;;4945964;28;20478;-48
2022/04/03 11:40:49;;;;;;;5.63;1.73;;;8.80;99.90;;;;;;4951690;28;20542;-48
2022/04/03 11:43:18;;;;;;;2.53;2.33;;;8.40;99.90;;;;;;4952761;28;20481;-53
2022/04/03 11:45:56;;;;;;;2.00;1.90;;;7.90;99.90;;;;;;4954422;28;20450;-53
2022/04/03 11:48:24;;;;;;;3.23;2.10;;;7.80;99.90;;;;;;4947598;29;20558;-54
2022/04/03 11:51:02;;;;;;;1.60;1.50;;;8.10;99.90;;;;;;4952466;28;20465;-54
2022/04/03 11:53:31;;;;;;;1.90;1.80;;;8.50;99.90;;;;;;4954901;28;20967;-53
2022/04/03 11:56:04;;;;;;;2.30;1.80;;;8.60;99.90;;;;;;4952958;28;20462;-54
2022/04/03 11:58:31;;;;;;;1.90;1.80;;;8.40;99.90;;;;;;4952983;29;20561;-54
2022/04/03 12:00:59;;;;;;;1.90;1.67;;;8.00;99.90;;;;;;4953776;28;20544;-55
2022/04/03 12:03:27;;;;;;;4.13;2.07;;;8.00;99.90;;;;;;4954299;29;20564;-50
2022/04/03 12:06:10;;;;;;;2.00;1.90;;;8.50;99.90;;;;;;4953506;28;21039;-54
2022/04/03 12:08:42;;;;;;;1.43;1.37;;;8.30;99.90;;;;;;4953849;28;20469;-53
2022/04/03 12:11:19;;;;;;;3.60;3.30;;;7.90;99.90;;;;;;4952991;28;20573;-53
2022/04/03 12:13:46;;;;;;;2.90;2.70;;;7.80;99.90;;;;;;4953091;28;20972;-53
2022/04/03 12:16:17;;;;;;;5.30;2.90;;;7.80;99.90;;;;;;4954895;28;20529;-54
2022/04/03 12:18:53;;;;;;;7.70;2.13;;;8.00;99.90;;;;;;4952413;28;20474;-53
2022/04/03 12:21:19;;;;;;;2.87;1.80;;;8.20;99.90;;;;;;4951108;29;20573;-54
2022/04/03 12:24:04;;;;;;;3.07;2.40;;;8.80;99.90;;;;;;4953880;28;20471;-53
2022/04/03 12:26:30;;;;;;;1.83;1.60;;;9.30;99.90;;;;;;4953526;28;21133;-54
2022/04/03 12:28:57;;;;;;;4.87;2.50;;;9.00;99.90;;;;;;4953637;28;20554;-52
2022/04/03 12:31:27;;;;;;;2.30;2.10;;;8.50;99.90;;;;;;4953781;28;20558;-51
2022/04/03 12:34:07;;;;;;;3.63;3.13;;;8.50;99.90;;;;;;4953325;28;20470;-51
2022/04/03 12:36:38;;;;;;;3.13;2.37;;;8.60;99.90;;;;;;4949146;29;21064;-51
2022/04/03 12:39:35;;;;;;;2.23;2.13;;;8.50;99.90;;;;;;4953066;28;20475;-50
2022/04/03 12:42:13;;;;;;;7.67;2.30;;;8.80;99.90;;;;;;4948692;28;20572;-50
2022/04/03 12:44:45;;;;;;;2.33;2.10;;;9.30;99.90;;;;;;4952909;28;20489;-51
2022/04/03 12:47:15;;;;;;;4.20;2.10;;;9.40;99.90;;;;;;4951740;28;20498;-51
2022/04/03 12:49:46;;;;;;;2.20;1.83;;;9.30;99.90;;;;;;4947241;28;20463;-51
2022/04/03 12:52:19;;;;;;;1.80;1.70;;;10.30;99.90;;;;;;4948619;28;20553;-52
2022/04/03 12:54:47;;;;;;;3.90;2.07;;;9.80;99.90;;;;;;4950161;28;20953;-52
2022/04/03 13:00:14;;;;;;;2.13;2.03;;;10.80;99.90;;;;;;4949030;29;20939;-50
2022/04/03 13:02:44;;;;;;;2.13;2.00;;;10.20;99.90;;;;;;4951692;28;20545;-47